createdAt,value
2018-06-10T00:00:50.026Z,74.52
2018-06-10T00:01:49.989Z,74.05
2018-06-10T00:02:49.973Z,74.52
2018-06-10T00:03:49.965Z,74.24
2018-06-10T00:04:49.973Z,74.52
2018-06-10T00:05:49.972Z,73.95
2018-06-10T00:06:49.991Z,74.62
2018-06-10T00:07:49.948Z,74.33
2018-06-10T00:08:49.947Z,74.52
2018-06-10T00:09:49.944Z,74.14
2018-06-10T00:10:49.942Z,74.43
2018-06-10T00:11:50.071Z,74.14
2018-06-10T00:12:49.930Z,74.20
2018-06-10T00:13:49.911Z,74.43
2018-06-10T00:14:49.911Z,74.62
2018-06-10T00:15:49.911Z,74.49
2018-06-10T00:16:49.901Z,74.33
2018-06-10T00:17:49.912Z,73.66
2018-06-10T00:18:49.925Z,74.62
2018-06-10T00:19:49.890Z,74.05
2018-06-10T00:20:49.874Z,74.72
2018-06-10T00:21:49.873Z,74.05
2018-06-10T00:22:49.871Z,74.20
2018-06-10T00:23:49.863Z,74.30
2018-06-10T00:24:49.881Z,74.49
2018-06-10T00:25:49.847Z,74.30
2018-06-10T00:26:49.845Z,74.14
2018-06-10T00:27:49.848Z,74.40
2018-06-10T00:28:49.830Z,74.01
2018-06-10T00:29:49.976Z,74.30
2018-06-10T00:30:49.830Z,74.30
2018-06-10T00:31:49.820Z,74.49
2018-06-10T00:32:49.811Z,74.20
2018-06-10T00:33:49.806Z,74.58
2018-06-10T00:34:49.792Z,74.30
2018-06-10T00:35:49.809Z,74.49
2018-06-10T00:36:49.796Z,74.58
2018-06-10T00:37:51.845Z,74.58
2018-06-10T00:38:49.769Z,74.49
2018-06-10T00:39:49.771Z,74.40
2018-06-10T00:40:49.798Z,74.30
2018-06-10T00:41:49.769Z,74.40
2018-06-10T00:42:49.758Z,74.20
2018-06-10T00:43:49.749Z,74.10
2018-06-10T00:44:49.747Z,74.49
2018-06-10T00:45:49.872Z,74.30
2018-06-10T00:46:49.729Z,74.01
2018-06-10T00:47:49.727Z,74.40
2018-06-10T00:48:49.723Z,74.45
2018-06-10T00:49:49.711Z,74.65
2018-06-10T00:50:49.714Z,75.32
2018-06-10T00:51:49.744Z,74.93
2018-06-10T00:52:49.701Z,74.55
2018-06-10T00:53:49.692Z,74.93
2018-06-10T00:54:49.685Z,74.93
2018-06-10T00:55:49.674Z,74.93
2018-06-10T00:56:49.673Z,74.45
2018-06-10T00:57:49.683Z,74.36
2018-06-10T00:58:49.653Z,74.55
2018-06-10T00:59:49.647Z,74.74
2018-06-10T01:00:49.649Z,75.51
2018-06-10T01:01:49.644Z,75.61
2018-06-10T01:02:49.704Z,75.90
2018-06-10T01:03:49.636Z,75.32
2018-06-10T01:04:49.632Z,75.23
2018-06-10T01:05:49.651Z,75.32
2018-06-10T01:06:49.619Z,75.32
2018-06-10T01:07:49.607Z,75.71
2018-06-10T01:08:49.629Z,75.42
2018-06-10T01:09:49.595Z,75.71
2018-06-10T01:10:49.595Z,75.80
2018-06-10T01:11:49.588Z,76.28
2018-06-10T01:12:49.575Z,75.76
2018-06-10T01:13:50.194Z,75.71
2018-06-10T01:14:49.564Z,75.61
2018-06-10T01:15:49.687Z,75.80
2018-06-10T01:16:49.554Z,76.53
2018-06-10T01:17:49.543Z,76.15
2018-06-10T01:18:49.578Z,75.57
2018-06-10T01:19:49.543Z,75.86
2018-06-10T01:20:49.526Z,76.34
2018-06-10T01:21:49.525Z,76.15
2018-06-10T01:22:49.521Z,75.76
2018-06-10T01:23:49.510Z,75.96
2018-06-10T01:24:49.645Z,76.15
2018-06-10T01:25:49.499Z,76.34
2018-06-10T01:26:49.489Z,76.44
2018-06-10T01:27:49.495Z,76.44
2018-06-10T01:28:49.465Z,76.34
2018-06-10T01:29:49.467Z,76.63
2018-06-10T01:30:49.506Z,76.15
2018-06-10T01:31:49.459Z,76.63
2018-06-10T01:32:49.447Z,77.21
2018-06-10T01:33:49.448Z,77.69
2018-06-10T01:34:49.444Z,76.92
2018-06-10T01:35:49.789Z,77.01
2018-06-10T01:36:49.429Z,77.31
2018-06-10T01:37:49.418Z,77.21
2018-06-10T01:38:49.416Z,77.31
2018-06-10T01:39:49.407Z,77.26
2018-06-10T01:40:49.402Z,77.31
2018-06-10T01:41:49.429Z,78.13
2018-06-10T01:42:50.219Z,77.46
2018-06-10T01:43:49.391Z,77.84
2018-06-10T01:44:49.368Z,77.26
2018-06-10T01:45:49.390Z,77.75
2018-06-10T01:46:49.392Z,78.33
2018-06-10T01:47:49.362Z,78.23
2018-06-10T01:48:49.358Z,78.90
2018-06-10T01:49:49.345Z,78.13
2018-06-10T01:50:49.331Z,78.33
2018-06-10T01:51:49.365Z,78.90
2018-06-10T01:52:49.321Z,78.81
2018-06-10T01:53:49.312Z,78.33
2018-06-10T01:54:49.314Z,78.33
2018-06-10T01:55:49.308Z,77.94
2018-06-10T01:56:49.302Z,77.56
2018-06-10T01:57:49.297Z,77.46
2018-06-10T01:58:49.314Z,77.84
2018-06-10T01:59:49.271Z,77.94
2018-06-10T02:00:49.271Z,78.42
2018-06-10T02:01:49.268Z,78.52
2018-06-10T02:02:49.297Z,78.81
2018-06-10T02:03:49.696Z,78.52
2018-06-10T02:04:49.242Z,78.03
2018-06-10T02:05:49.246Z,78.03
2018-06-10T02:06:49.236Z,78.42
2018-06-10T02:07:49.218Z,79.00
2018-06-10T02:08:49.231Z,78.42
2018-06-10T02:09:49.209Z,78.58
2018-06-10T02:10:49.205Z,78.90
2018-06-10T02:11:49.363Z,78.96
2018-06-10T02:12:49.197Z,79.10
2018-06-10T02:13:49.328Z,79.28
2018-06-10T02:14:49.183Z,79.25
2018-06-10T02:15:49.172Z,79.00
2018-06-10T02:16:49.177Z,78.77
2018-06-10T02:17:49.163Z,79.19
2018-06-10T02:18:49.152Z,79.44
2018-06-10T02:19:49.163Z,79.25
2018-06-10T02:20:49.146Z,79.53
2018-06-10T02:21:49.135Z,79.63
2018-06-10T02:22:49.138Z,79.73
2018-06-10T02:23:49.153Z,79.35
2018-06-10T02:24:49.113Z,79.44
2018-06-10T02:25:49.133Z,79.25
2018-06-10T02:26:49.106Z,79.25
2018-06-10T02:27:49.087Z,78.86
2018-06-10T02:28:49.087Z,79.15
2018-06-10T02:29:49.077Z,78.86
2018-06-10T02:30:49.261Z,78.19
2018-06-10T02:31:49.057Z,78.86
2018-06-10T02:32:49.054Z,78.77
2018-06-10T02:33:49.053Z,78.48
2018-06-10T02:34:49.735Z,78.86
2018-06-10T02:35:49.039Z,80.02
2018-06-10T02:36:49.041Z,79.44
2018-06-10T02:37:49.027Z,79.35
2018-06-10T02:38:49.010Z,79.35
2018-06-10T02:39:49.004Z,78.52
2018-06-10T02:40:49.004Z,78.52
2018-06-10T02:41:49.026Z,78.52
2018-06-10T02:42:49.024Z,78.61
2018-06-10T02:43:48.983Z,79.15
2018-06-10T02:44:48.975Z,79.53
2018-06-10T02:45:48.970Z,79.73
2018-06-10T02:46:48.965Z,79.15
2018-06-10T02:47:48.997Z,79.92
2018-06-10T02:48:48.961Z,79.63
2018-06-10T02:49:48.943Z,79.82
2018-06-10T02:50:48.970Z,79.15
2018-06-10T02:51:48.929Z,79.05
2018-06-10T02:52:49.003Z,78.71
2018-06-10T02:53:48.935Z,79.10
2018-06-10T02:54:48.907Z,79.63
2018-06-10T02:55:48.905Z,79.44
2018-06-10T02:56:48.899Z,80.50
2018-06-10T02:57:48.880Z,79.44
2018-06-10T02:58:48.890Z,79.53
2018-06-10T02:59:48.882Z,79.73
2018-06-10T03:00:48.877Z,79.25
2018-06-10T03:01:48.866Z,79.53
2018-06-10T03:02:48.846Z,78.96
2018-06-10T03:03:48.911Z,79.92
2018-06-10T03:04:48.837Z,79.73
2018-06-10T03:05:48.828Z,79.82
2018-06-10T03:06:48.826Z,79.44
2018-06-10T03:07:48.831Z,79.63
2018-06-10T03:08:48.804Z,80.40
2018-06-10T03:09:48.920Z,80.30
2018-06-10T03:10:48.794Z,80.88
2018-06-10T03:11:48.794Z,80.98
2018-06-10T03:12:48.798Z,81.84
2018-06-10T03:13:48.827Z,81.94
2018-06-10T03:14:48.777Z,82.52
2018-06-10T03:15:48.810Z,82.52
2018-06-10T03:16:49.001Z,83.00
2018-06-10T03:17:48.763Z,83.44
2018-06-10T03:18:48.748Z,83.44
2018-06-10T03:19:48.743Z,83.63
2018-06-10T03:20:48.769Z,83.83
2018-06-10T03:21:48.743Z,84.78
2018-06-10T03:22:48.755Z,85.13
2018-06-10T03:23:48.758Z,85.61
2018-06-10T03:24:48.775Z,85.46
2018-06-10T03:25:48.723Z,86.28
2018-06-10T03:26:48.702Z,86.95
2018-06-10T03:27:48.714Z,87.53
2018-06-10T03:28:48.681Z,87.82
2018-06-10T03:29:48.677Z,88.30
2018-06-10T03:30:48.672Z,88.30
2018-06-10T03:31:48.660Z,88.87
2018-06-10T03:47:17.375Z,90.03
2018-06-10T03:47:17.885Z,89.40
2018-06-10T03:48:26.916Z,90.66
2018-06-10T03:49:17.899Z,90.56
2018-06-10T03:50:17.869Z,90.56
2018-06-10T03:51:17.859Z,91.18
2018-06-10T03:52:17.890Z,91.42
2018-06-10T03:53:17.844Z,91.66
2018-06-10T03:54:18.042Z,91.90
2018-06-10T03:55:17.820Z,91.66
2018-06-10T03:56:17.863Z,92.19
2018-06-10T03:57:17.875Z,92.57
2018-06-10T03:58:17.959Z,92.48
2018-06-10T03:59:18.916Z,92.29
2018-06-10T04:01:00.432Z,92.29
2018-06-10T04:01:17.775Z,92.86
2018-06-10T04:02:17.768Z,92.67
2018-06-10T04:03:17.764Z,92.77
2018-06-10T04:04:17.830Z,92.86
2018-06-10T04:05:17.765Z,92.86
2018-06-10T04:06:17.740Z,93.05
2018-06-10T04:07:17.733Z,92.86
2018-06-10T04:08:17.719Z,92.86
2018-06-10T04:09:17.754Z,92.38
2018-06-10T04:10:17.954Z,91.81
2018-06-10T04:11:17.697Z,91.56
2018-06-10T04:12:17.697Z,91.95
2018-06-10T04:13:18.058Z,91.56
2018-06-10T04:14:17.696Z,91.56
2018-06-10T04:15:17.689Z,92.05
2018-06-10T04:16:17.684Z,92.33
2018-06-10T04:17:17.660Z,92.33
2018-06-10T06:08:57.314Z,89.98
2018-06-10T08:09:58.261Z,87.76
2018-06-10T08:44:03.190Z,87.03
2018-06-10T08:45:02.597Z,87.32
2018-06-10T08:46:01.836Z,86.93
2018-06-10T08:47:02.003Z,87.60
2018-06-10T08:50:42.538Z,86.45
2018-06-10T08:51:42.431Z,88.18
2018-06-10T08:52:42.474Z,87.51
2018-06-10T08:53:43.331Z,87.80
2018-06-10T08:54:43.223Z,87.80
2018-06-10T08:55:42.881Z,88.28
2018-06-10T08:56:43.016Z,88.67
2018-06-10T09:34:36.004Z,87.03
2018-06-10T09:35:09.683Z,86.35
2018-06-10T09:36:08.966Z,86.16
2018-06-10T09:37:09.139Z,86.83
2018-06-10T09:38:08.967Z,86.98
2018-06-10T09:39:08.975Z,86.16
2018-06-10T09:40:09.168Z,85.82
2018-06-10T09:41:08.987Z,85.63
2018-06-10T09:42:09.246Z,85.53
2018-06-10T09:43:08.948Z,86.21
2018-06-10T09:44:16.736Z,86.21
2018-06-10T09:45:09.708Z,85.43
2018-06-10T09:46:08.952Z,86.21
2018-06-10T09:47:10.709Z,86.11
2018-06-10T09:48:08.914Z,86.21
2018-06-10T09:49:08.944Z,84.95
2018-06-10T09:50:09.591Z,85.34
2018-06-10T09:51:09.101Z,85.24
2018-06-10T09:52:09.067Z,85.38
2018-06-10T09:53:08.936Z,85.57
2018-06-10T09:54:08.883Z,85.38
2018-06-10T09:55:10.197Z,85.28
2018-06-10T09:56:09.004Z,85.28
2018-06-10T09:57:09.193Z,85.23
2018-06-10T09:58:08.908Z,85.42
2018-06-10T09:59:23.345Z,84.07
2018-06-10T10:00:08.851Z,84.59
2018-06-10T10:01:08.832Z,83.01
2018-06-10T10:02:08.823Z,82.24
2018-06-10T10:03:09.734Z,82.14
2018-06-10T10:04:10.348Z,83.30
2018-06-10T10:05:09.483Z,83.11
2018-06-10T11:00:57.243Z,84.42
2018-06-10T11:07:51.789Z,84.61
2018-06-10T11:08:15.945Z,84.52
2018-06-10T11:09:15.016Z,84.70
2018-06-10T11:10:15.101Z,84.80
2018-06-10T11:11:15.018Z,84.80
2018-06-10T11:12:15.197Z,84.42
2018-06-10T11:13:14.992Z,84.80
2018-06-10T11:14:14.991Z,84.61
2018-06-10T11:15:15.101Z,85.28
2018-06-10T11:16:14.995Z,84.86
2018-06-10T11:17:14.992Z,85.19
2018-06-10T11:18:14.946Z,84.38
2018-06-10T11:19:14.987Z,84.90
2018-06-10T11:20:14.969Z,85.43
2018-06-10T11:21:15.013Z,85.05
2018-06-10T11:22:14.920Z,85.34
2018-06-10T11:23:14.938Z,85.43
2018-06-10T11:24:14.925Z,85.14
2018-06-10T11:25:16.075Z,85.63
2018-06-10T11:26:14.899Z,86.30
2018-06-10T11:27:14.931Z,85.72
2018-06-10T11:28:15.014Z,85.34
2018-06-10T11:29:14.885Z,85.53
2018-06-10T11:30:14.965Z,85.43
2018-06-10T11:31:14.904Z,85.14
2018-06-10T11:32:14.868Z,85.72
2018-06-10T11:33:14.937Z,85.34
2018-06-10T11:34:14.855Z,85.24
2018-06-10T11:35:15.559Z,85.53
2018-06-10T11:36:15.474Z,85.43
2018-06-10T11:37:14.827Z,85.87
2018-06-10T11:38:16.400Z,85.34
2018-06-10T11:39:14.824Z,85.14
2018-06-10T11:40:14.822Z,85.24
2018-06-10T11:41:15.170Z,85.34
2018-06-10T11:42:16.430Z,85.43
2018-06-10T12:02:13.064Z,84.03
2018-06-10T12:02:13.591Z,83.84
2018-06-10T12:14:49.415Z,82.34
2018-06-10T12:46:00.786Z,79.04
2018-06-10T12:46:59.146Z,78.13
2018-06-10T12:47:59.018Z,78.91
2018-06-10T12:48:59.089Z,79.29
2018-06-10T12:49:59.027Z,79.29
2018-06-10T12:50:59.035Z,79.00
2018-06-10T12:51:58.998Z,79.29
2018-06-10T12:53:00.041Z,78.23
2018-06-10T12:53:58.989Z,78.33
2018-06-10T12:54:58.987Z,78.61
2018-06-10T12:57:30.343Z,78.61
2018-06-10T12:57:57.911Z,78.71
2018-06-10T12:58:30.838Z,78.71
2018-06-10T13:04:01.462Z,78.33
2018-06-10T13:04:57.521Z,78.81
2018-06-10T13:05:57.521Z,78.61
2018-06-10T13:06:57.812Z,78.52
2018-06-10T13:08:09.267Z,78.52
2018-06-10T13:08:57.510Z,79.00
2018-06-10T13:09:57.500Z,78.81
2018-06-10T13:10:57.512Z,78.46
2018-06-10T13:14:50.712Z,78.46
2018-06-10T13:15:50.058Z,78.03
2018-06-10T13:16:50.044Z,77.84
2018-06-10T13:17:50.053Z,77.17
2018-06-10T13:18:50.056Z,77.36
2018-06-10T13:19:50.046Z,77.17
2018-06-10T13:20:50.066Z,77.94
2018-06-10T13:21:50.056Z,78.33
2018-06-10T13:22:50.025Z,77.94
2018-06-10T13:23:50.053Z,77.94
2018-06-10T13:24:50.029Z,77.26
2018-06-10T13:25:50.052Z,78.13
2018-06-10T13:26:50.012Z,77.84
2018-06-10T13:27:50.008Z,77.21
2018-06-10T13:28:50.039Z,78.13
2018-06-10T13:29:49.996Z,78.08
2018-06-10T13:30:49.995Z,77.17
2018-06-10T13:31:50.016Z,77.36
2018-06-10T13:32:49.989Z,78.17
2018-06-10T13:36:03.952Z,76.72
2018-06-10T13:37:03.962Z,76.34
2018-06-10T13:38:18.618Z,76.53
2018-06-10T13:39:04.599Z,76.72
2018-06-10T13:46:35.126Z,75.82
2018-06-10T13:46:35.577Z,76.20
2018-06-10T13:47:35.480Z,76.20
2018-06-10T13:48:35.516Z,76.30
2018-06-10T13:54:00.098Z,76.53
2018-06-10T13:54:34.510Z,75.72
2018-06-10T13:55:00.609Z,76.50
2018-06-10T13:56:00.743Z,76.10
2018-06-10T13:57:00.729Z,76.72
2018-06-10T13:58:01.429Z,76.53
2018-06-10T14:01:24.659Z,76.82
2018-06-10T14:29:27.335Z,74.44
2018-06-10T14:30:03.966Z,74.44
2018-06-10T14:40:50.827Z,73.86
2018-06-10T14:41:47.501Z,74.29
2018-06-10T14:42:47.518Z,74.48
2018-06-10T14:43:47.504Z,73.61
2018-06-10T14:44:47.660Z,73.22
2018-06-10T14:45:47.517Z,73.13
2018-06-10T14:46:47.499Z,72.13
2018-06-10T14:47:47.522Z,72.52
2018-06-10T14:48:47.477Z,72.42
2018-06-10T14:49:48.319Z,72.61
2018-06-10T14:50:47.513Z,72.90
2018-06-10T14:51:47.462Z,73.38
2018-06-10T14:52:47.876Z,73.28
2018-06-10T14:53:55.409Z,73.28
2018-06-10T14:54:47.444Z,72.94
2018-06-10T14:55:47.471Z,72.36
2018-06-10T14:56:47.433Z,72.06
2018-06-10T14:57:47.490Z,72.42
2018-06-10T14:58:47.510Z,72.80
2018-06-10T14:59:47.650Z,73.52
2018-06-10T15:00:47.461Z,73.52
2018-06-10T15:01:47.420Z,73.22
2018-06-10T15:02:48.287Z,72.55
2018-06-10T15:09:24.898Z,72.45
2018-06-10T15:09:33.897Z,72.36
2018-06-10T15:10:34.098Z,71.88
2018-06-10T15:15:08.246Z,71.68
2018-06-10T15:16:06.501Z,71.52
2018-06-10T15:17:06.453Z,70.75
2018-06-10T15:18:06.624Z,70.26
2018-06-10T15:19:06.485Z,70.42
2018-06-10T15:20:06.947Z,71.48
2018-06-10T15:21:06.599Z,72.36
2018-06-10T15:22:06.499Z,72.45
2018-06-10T15:23:06.550Z,71.58
2018-06-10T15:24:06.826Z,71.10
2018-06-10T15:25:06.422Z,71.58
2018-06-10T15:27:22.342Z,71.68
2018-06-10T15:27:22.859Z,72.39
2018-06-10T15:28:22.913Z,72.20
2018-06-10T15:29:22.911Z,72.20
2018-06-10T15:32:40.182Z,72.10
2018-06-10T15:33:40.157Z,71.81
2018-06-10T15:34:40.290Z,70.98
2018-06-10T15:35:40.180Z,71.04
2018-06-10T15:38:24.865Z,70.98
2018-06-10T15:41:27.338Z,71.17
2018-06-10T15:51:32.473Z,70.59
2018-06-10T15:52:32.504Z,70.59
2018-06-10T15:53:32.438Z,70.78
2018-06-10T15:54:32.622Z,70.59
2018-06-10T15:55:32.478Z,71.14
2018-06-10T15:56:32.404Z,71.26
2018-06-10T15:57:32.409Z,71.17
2018-06-10T15:58:32.414Z,70.59
2018-06-10T15:59:32.575Z,70.30
2018-06-10T16:00:32.662Z,70.26
2018-06-10T16:01:32.537Z,69.49
2018-06-10T16:02:32.451Z,69.88
2018-06-10T16:03:32.384Z,69.88
2018-06-10T16:04:32.385Z,70.07
2018-06-10T16:05:32.381Z,70.17
2018-06-10T16:06:32.398Z,69.30
2018-06-10T16:07:32.435Z,69.98
2018-06-10T16:08:32.368Z,69.88
2018-06-10T16:09:32.480Z,70.17
2018-06-10T16:10:32.365Z,70.17
2018-06-10T16:11:32.477Z,70.84
2018-06-10T16:12:32.487Z,70.84
2018-06-10T16:13:32.368Z,70.07
2018-06-10T16:14:32.339Z,69.68
2018-06-10T16:15:32.506Z,70.17
2018-06-10T16:16:32.723Z,70.65
2018-06-10T16:17:32.326Z,70.17
2018-06-10T16:18:32.337Z,70.07
2018-06-10T16:19:32.315Z,70.07
2018-06-10T16:20:32.326Z,69.78
2018-06-10T16:21:32.304Z,69.40
2018-06-10T16:25:39.129Z,71.04
2018-06-10T16:26:38.969Z,70.75
2018-06-10T16:27:38.870Z,71.14
2018-06-10T16:28:40.538Z,71.14
2018-06-10T16:29:38.854Z,70.65
2018-06-10T16:30:38.857Z,70.84
2018-06-10T16:31:38.848Z,70.75
2018-06-10T16:32:38.862Z,70.65
2018-06-10T16:33:38.880Z,70.17
2018-06-10T16:34:38.907Z,69.92
2018-06-10T16:35:38.837Z,70.10
2018-06-10T16:36:38.823Z,70.01
2018-06-10T16:37:38.880Z,68.75
2018-06-10T16:38:38.826Z,68.75
2018-06-10T16:39:38.834Z,67.79
2018-06-10T16:40:39.349Z,67.01
2018-06-10T16:41:38.829Z,67.01
2018-06-10T16:42:39.007Z,67.98
2018-06-10T16:43:38.873Z,68.08
2018-06-10T16:44:39.844Z,66.91
2018-06-10T16:45:41.019Z,67.21
2018-06-10T16:47:05.472Z,67.88
2018-06-10T16:47:39.666Z,67.11
2018-06-10T16:48:39.981Z,67.75
2018-06-10T16:49:38.811Z,68.08
2018-06-10T16:53:24.183Z,68.82
2018-06-10T16:54:24.168Z,69.20
2018-06-10T16:55:24.154Z,69.59
2018-06-10T16:57:52.762Z,69.49
2018-06-10T16:58:20.302Z,69.78
2018-06-10T16:58:53.238Z,69.36
2018-06-10T16:59:53.245Z,70.07
2018-06-10T17:01:09.817Z,69.46
2018-06-10T17:01:53.262Z,69.84
2018-06-10T17:02:53.230Z,70.04
2018-06-10T17:03:53.349Z,69.94
2018-06-10T17:06:20.261Z,70.14
2018-06-10T17:06:29.369Z,69.74
2018-06-10T17:07:20.769Z,70.04
2018-06-10T17:08:20.758Z,70.14
2018-06-10T17:09:20.787Z,70.81
2018-06-10T17:10:20.747Z,70.90
2018-06-10T17:11:20.765Z,70.90
2018-06-10T17:12:20.748Z,70.81
2018-06-10T17:13:20.747Z,71.10
2018-06-10T17:14:20.948Z,70.90
2018-06-10T17:23:15.936Z,70.14
2018-06-10T18:33:05.738Z,68.81
2018-06-10T18:33:38.691Z,69.39
2018-06-10T18:34:38.850Z,69.68
2018-06-10T18:35:38.676Z,69.78
2018-06-10T18:36:38.686Z,69.78
2018-06-10T18:37:38.674Z,69.49
2018-06-10T18:38:38.668Z,69.58
2018-06-10T18:39:39.429Z,69.97
2018-06-10T18:40:38.688Z,70.36
2018-06-10T18:41:38.663Z,70.16
2018-06-10T18:42:38.666Z,70.54
2018-06-10T18:43:38.901Z,70.64
2018-06-10T18:44:38.659Z,71.03
2018-06-10T18:45:38.636Z,70.84
2018-06-10T18:46:38.657Z,71.00
2018-06-10T18:47:38.639Z,70.90
2018-06-10T18:48:38.609Z,71.00
2018-06-10T18:49:38.749Z,71.48
2018-06-10T18:50:38.652Z,71.00
2018-06-10T18:51:38.596Z,70.70
2018-06-10T18:52:38.600Z,70.70
2018-06-10T18:53:38.609Z,71.58
2018-06-10T18:54:38.592Z,71.38
2018-06-10T18:55:40.966Z,71.77
2018-06-10T18:56:38.578Z,72.15
2018-06-10T18:57:38.609Z,71.19
2018-06-10T18:58:38.577Z,71.67
2018-06-10T18:59:38.559Z,72.06
2018-06-10T19:00:38.743Z,72.15
2018-06-10T19:01:38.559Z,72.15
2018-06-10T19:02:38.565Z,72.06
2018-06-10T19:03:38.553Z,72.25
2018-06-10T19:04:38.548Z,72.06
2018-06-10T19:05:39.682Z,72.12
2018-06-10T19:06:38.540Z,72.21
2018-06-10T19:07:38.570Z,72.41
2018-06-10T19:08:38.545Z,72.41
2018-06-10T19:09:38.538Z,72.02
2018-06-10T19:10:38.519Z,71.92
2018-06-10T19:11:38.515Z,72.31
2018-06-10T19:12:42.979Z,72.99
2018-06-10T19:13:39.440Z,72.69
2018-06-10T19:14:38.508Z,72.99
2018-06-10T19:15:38.488Z,72.79
2018-06-10T19:16:38.487Z,72.69
2018-06-10T19:19:25.745Z,72.79
2018-06-10T19:20:24.653Z,72.85
2018-06-10T19:21:24.610Z,72.99
2018-06-10T19:22:24.648Z,72.66
2018-06-10T19:23:24.866Z,72.37
2018-06-10T19:24:24.591Z,72.95
2018-06-10T19:25:24.870Z,73.14
2018-06-10T19:26:24.597Z,73.05
2018-06-10T19:27:24.577Z,73.14
2018-06-10T19:28:24.582Z,73.43
2018-06-10T19:29:24.729Z,73.43
2018-06-10T19:30:25.818Z,73.53
2018-06-10T19:31:25.211Z,73.53
2018-06-10T19:32:24.622Z,73.24
2018-06-10T19:33:24.557Z,73.53
2018-06-10T19:34:24.549Z,73.39
2018-06-10T19:35:24.766Z,72.91
2018-06-10T19:36:24.526Z,73.30
2018-06-10T19:37:25.163Z,73.10
2018-06-10T19:38:24.588Z,73.39
2018-06-10T19:46:05.338Z,74.16
2018-06-10T19:46:53.998Z,74.07
2018-06-10T19:48:04.763Z,73.84
2018-06-10T19:48:54.151Z,73.46
2018-06-10T19:49:54.427Z,73.55
2018-06-10T19:50:54.114Z,74.03
2018-06-10T19:51:53.940Z,74.03
2018-06-10T19:52:54.085Z,74.03
2018-06-10T19:53:54.342Z,74.41
2018-06-10T19:54:54.357Z,74.41
2018-06-10T19:55:54.031Z,74.13
2018-06-10T19:56:53.909Z,74.32
2018-06-10T19:57:53.940Z,74.03
2018-06-10T19:58:54.033Z,74.51
2018-06-10T20:00:07.302Z,74.13
2018-06-10T20:00:53.857Z,74.48
2018-06-10T20:01:53.903Z,73.71
2018-06-10T20:06:32.930Z,74.32
2018-06-10T20:07:31.012Z,74.38
2018-06-10T20:08:31.504Z,74.96
2018-06-10T20:09:31.154Z,74.29
2018-06-10T20:10:41.648Z,74.67
2018-06-10T20:11:30.964Z,74.57
2018-06-10T20:12:30.971Z,74.57
2018-06-10T20:13:30.966Z,74.09
2018-06-10T20:15:22.154Z,74.19
2018-06-10T20:15:30.946Z,74.29
2018-06-10T20:16:30.937Z,74.29
2018-06-10T20:17:30.941Z,73.80
2018-06-10T20:19:00.230Z,74.09
2018-06-10T20:19:30.923Z,73.80
2018-06-10T20:31:04.139Z,74.54
2018-06-10T20:31:35.182Z,74.57
2018-06-10T20:32:35.145Z,74.57
2018-06-10T20:33:35.345Z,74.44
2018-06-10T20:34:35.702Z,74.25
2018-06-10T20:35:35.183Z,74.54
2018-06-10T20:36:35.160Z,74.25
2018-06-10T20:37:35.120Z,74.82
2018-06-10T20:38:35.130Z,74.25
2018-06-10T20:39:35.101Z,74.73
2018-06-10T20:40:35.085Z,74.82
2018-06-10T20:41:35.090Z,74.73
2018-06-10T20:42:35.084Z,74.73
2018-06-10T20:43:35.062Z,74.73
2018-06-10T20:44:35.986Z,74.54
2018-06-10T20:45:35.045Z,74.73
2018-06-10T20:46:35.466Z,74.73
2018-06-10T20:47:35.028Z,74.92
2018-06-10T20:48:35.554Z,74.82
2018-06-10T20:49:35.061Z,75.21
2018-06-10T20:50:35.126Z,75.11
2018-06-10T20:51:35.461Z,75.21
2018-06-10T20:52:35.181Z,75.31
2018-06-10T20:53:35.023Z,75.02
2018-06-10T20:54:35.019Z,75.11
2018-06-10T20:55:34.972Z,75.40
2018-06-10T20:56:34.974Z,75.21
2018-06-10T20:57:34.964Z,75.11
2018-06-10T20:58:35.028Z,75.21
2018-06-10T20:59:34.981Z,75.31
2018-06-10T21:00:34.940Z,75.98
2018-06-10T21:01:34.934Z,75.69
2018-06-10T21:02:34.923Z,75.27
2018-06-10T21:03:34.930Z,75.49
2018-06-10T21:04:35.047Z,75.37
2018-06-10T21:05:34.936Z,75.75
2018-06-10T21:06:34.951Z,75.65
2018-06-10T21:07:34.888Z,75.37
2018-06-10T21:08:34.884Z,75.46
2018-06-10T21:09:35.253Z,75.46
2018-06-10T21:11:07.490Z,75.46
2018-06-10T21:11:34.864Z,75.46
2018-06-10T21:12:34.856Z,75.56
2018-06-10T21:13:34.856Z,75.27
2018-06-10T21:14:34.918Z,75.46
2018-06-10T21:17:10.820Z,75.46
2018-06-10T21:20:44.973Z,75.84
2018-06-10T21:21:17.812Z,76.14
2018-06-10T21:22:17.811Z,76.04
2018-06-10T21:24:44.828Z,76.14
2018-06-10T21:25:12.337Z,75.75
2018-06-10T21:25:45.352Z,76.14
2018-06-10T21:26:45.317Z,75.84
2018-06-10T21:27:45.305Z,76.23
2018-06-10T21:34:34.403Z,76.14
2018-06-10T21:39:48.119Z,75.94
2018-06-10T21:40:20.949Z,75.65
2018-06-10T21:41:20.933Z,75.46
2018-06-10T21:42:20.954Z,76.48
2018-06-10T21:43:20.934Z,76.19
2018-06-10T21:44:20.919Z,76.57
2018-06-10T21:45:20.940Z,77.06
2018-06-10T21:46:20.903Z,76.86
2018-06-10T21:47:20.901Z,77.15
2018-06-10T21:48:20.883Z,77.06
2018-06-10T21:49:20.889Z,77.06
2018-06-10T21:50:20.869Z,77.15
2018-06-10T21:51:21.008Z,76.77
2018-06-10T21:52:20.862Z,77.15
2018-06-10T21:53:20.900Z,77.15
2018-06-10T21:54:20.930Z,76.67
2018-06-10T21:55:20.855Z,76.77
2018-06-10T21:56:20.848Z,76.57
2018-06-10T21:57:20.863Z,76.77
2018-06-10T21:58:20.854Z,76.57
2018-06-10T21:59:20.807Z,77.15
2018-06-10T22:00:20.789Z,76.67
2018-06-10T22:01:20.916Z,76.57
2018-06-10T22:02:20.859Z,76.67
2018-06-10T22:03:20.780Z,76.48
2018-06-10T22:04:20.775Z,76.57
2018-06-10T22:05:20.752Z,76.57
2018-06-10T22:06:20.747Z,76.19
2018-06-10T22:07:20.738Z,76.09
2018-06-10T22:08:20.965Z,76.67
2018-06-10T22:09:21.284Z,75.90
2018-06-10T22:10:20.724Z,76.67
2018-06-10T22:11:20.713Z,76.09
2018-06-10T22:12:20.698Z,76.19
2018-06-10T22:13:20.703Z,76.09
2018-06-10T22:14:20.710Z,76.09
2018-06-10T22:15:21.452Z,76.39
2018-06-10T22:16:20.674Z,76.57
2018-06-10T22:17:20.991Z,76.57
2018-06-10T22:18:20.660Z,76.67
2018-06-10T22:19:20.691Z,76.09
2018-06-10T22:20:20.786Z,76.48
2018-06-10T22:21:20.649Z,76.09
2018-06-10T22:22:20.630Z,76.57
2018-06-10T22:23:20.649Z,77.06
2018-06-10T22:24:20.618Z,76.77
2018-06-10T22:25:20.756Z,76.86
2018-06-10T22:26:20.609Z,76.96
2018-06-10T22:27:21.282Z,76.67
2018-06-10T22:28:20.589Z,76.19
2018-06-10T22:29:20.574Z,76.48
2018-06-10T22:30:20.583Z,76.67
2018-06-10T22:31:20.575Z,76.00
2018-06-10T22:32:20.566Z,76.09
2018-06-10T22:33:20.595Z,76.39
2018-06-10T22:34:20.545Z,76.39
2018-06-10T22:35:20.525Z,76.29
2018-06-10T22:36:20.572Z,76.29
2018-06-10T22:37:21.290Z,76.14
2018-06-10T22:38:20.525Z,76.32
2018-06-10T22:39:20.505Z,76.57
2018-06-10T22:40:20.493Z,76.67
2018-06-10T22:41:20.601Z,76.67
2018-06-10T22:42:20.499Z,76.67
2018-06-10T22:43:20.479Z,76.48
2018-06-10T22:44:20.469Z,76.48
2018-06-10T22:45:20.460Z,76.96
2018-06-10T22:46:20.480Z,76.57
2018-06-10T22:47:20.440Z,76.19
2018-06-10T22:48:20.439Z,76.39
2018-06-10T22:49:20.462Z,76.48
2018-06-10T22:50:21.290Z,76.86
2018-06-10T22:51:20.414Z,76.96
2018-06-10T22:52:20.447Z,76.86
2018-06-10T22:53:20.403Z,76.67
2018-06-10T22:54:20.397Z,76.77
2018-06-10T22:55:20.391Z,76.96
2018-06-10T22:59:04.643Z,76.57
2018-06-10T23:00:03.199Z,76.67
2018-06-10T23:01:03.185Z,76.67
2018-06-10T23:02:03.174Z,76.86
2018-06-10T23:03:03.946Z,76.57
2018-06-10T23:04:03.154Z,76.39
2018-06-10T23:05:03.188Z,76.57
2018-06-10T23:06:03.138Z,76.57
2018-06-10T23:07:03.255Z,76.48
2018-06-10T23:08:03.170Z,76.64
2018-06-10T23:09:03.120Z,75.87
2018-06-10T23:10:03.159Z,76.00
2018-06-10T23:11:03.115Z,76.39
2018-06-10T23:12:03.151Z,76.09
2018-06-10T23:13:03.479Z,76.29
2018-06-10T23:14:03.081Z,76.09
2018-06-10T23:15:03.087Z,76.48
2018-06-10T23:16:03.063Z,76.48
2018-06-10T23:17:03.115Z,76.09
2018-06-10T23:18:03.082Z,76.29
2018-06-10T23:19:03.043Z,76.19
2018-06-10T23:20:03.041Z,76.48
2018-06-10T23:21:12.597Z,76.29
2018-06-10T23:22:03.124Z,75.81
2018-06-10T23:23:03.008Z,75.62
2018-06-10T23:24:03.030Z,75.48
2018-06-10T23:25:03.028Z,75.71
2018-06-10T23:26:03.006Z,76.29
2018-06-10T23:28:35.796Z,75.48
2018-06-10T23:33:22.865Z,76.44
2018-06-10T23:34:22.856Z,76.44
2018-06-10T23:35:22.850Z,76.34
2018-06-10T23:36:23.211Z,76.34
2018-06-10T23:37:22.861Z,76.25